createdAt,value
2022-08-24T00:01:31.469Z,51.90
2022-08-24T00:04:33.969Z,51.20
2022-08-24T00:07:36.081Z,52.80
2022-08-24T00:10:38.119Z,52.00
2022-08-24T00:13:40.319Z,52.30
2022-08-24T00:16:42.783Z,52.50
2022-08-24T00:19:44.855Z,52.50
2022-08-24T00:22:46.836Z,53.40
2022-08-24T00:25:49.000Z,54.50
2022-08-24T00:28:51.861Z,54.40
2022-08-24T00:31:54.029Z,53.50
2022-08-24T00:34:56.287Z,51.70
2022-08-24T00:38:01.568Z,52.30
2022-08-24T00:41:05.114Z,52.30
2022-08-24T00:44:07.843Z,53.50
2022-08-24T00:47:47.796Z,52.80
2022-08-24T00:50:57.866Z,53.20
2022-08-24T00:54:06.524Z,54.50
2022-08-24T00:57:11.457Z,54.60
2022-08-24T01:00:30.220Z,54.20
2022-08-24T01:03:33.516Z,53.90
2022-08-24T01:06:35.477Z,54.20
2022-08-24T01:09:40.063Z,53.60
2022-08-24T01:12:48.220Z,53.50
2022-08-24T01:16:07.128Z,53.50
2022-08-24T01:19:38.984Z,54.30
2022-08-24T01:23:13.391Z,54.90
2022-08-24T01:26:31.353Z,54.90
2022-08-24T01:29:33.645Z,54.80
2022-08-24T01:32:36.127Z,55.10
2022-08-24T01:35:39.597Z,54.10
2022-08-24T01:38:43.164Z,54.50
2022-08-24T01:41:45.614Z,54.90
2022-08-24T01:44:47.743Z,55.20
2022-08-24T01:47:50.058Z,59.20
2022-08-24T01:50:52.448Z,62.70
2022-08-24T01:53:56.527Z,64.00
2022-08-24T01:57:00.014Z,62.80
2022-08-24T02:00:04.328Z,59.30
2022-08-24T02:03:14.714Z,58.50
2022-08-24T02:06:21.332Z,57.30
2022-08-24T02:09:23.385Z,58.20
2022-08-24T02:12:29.977Z,58.90
2022-08-24T02:15:39.503Z,59.20
2022-08-24T02:18:43.431Z,59.10
2022-08-24T02:21:45.458Z,59.00
2022-08-24T02:24:48.376Z,58.80
2022-08-24T02:27:50.804Z,59.10
2022-08-24T02:30:52.910Z,56.10
2022-08-24T02:33:54.978Z,57.10
2022-08-24T02:36:56.873Z,57.50
2022-08-24T02:39:59.230Z,58.50
2022-08-24T02:43:02.507Z,57.80
2022-08-24T02:46:04.586Z,58.10
2022-08-24T02:49:11.025Z,58.30
2022-08-24T02:52:17.303Z,58.00
2022-08-24T02:55:20.282Z,58.30
2022-08-24T02:58:24.924Z,58.60
2022-08-24T03:01:30.456Z,58.20
2022-08-24T03:04:33.213Z,59.30
2022-08-24T03:07:37.016Z,59.50
2022-08-24T03:10:39.234Z,59.30
2022-08-24T03:13:42.140Z,59.90
2022-08-24T03:16:44.533Z,60.30
2022-08-24T03:19:46.469Z,59.70
2022-08-24T03:22:48.823Z,60.10
2022-08-24T03:25:52.097Z,58.80
2022-08-24T03:28:56.227Z,59.40
2022-08-24T03:32:01.604Z,58.90
2022-08-24T03:35:03.623Z,60.40
2022-08-24T03:38:06.172Z,61.10
2022-08-24T03:41:08.361Z,61.80
2022-08-24T03:44:10.418Z,62.80
2022-08-24T03:47:13.039Z,62.10
2022-08-24T03:50:15.437Z,62.00
2022-08-24T03:53:17.521Z,62.20
2022-08-24T03:56:19.619Z,62.20
2022-08-24T03:59:21.688Z,61.60
2022-08-24T04:02:32.439Z,62.40
2022-08-24T04:05:35.286Z,61.70
2022-08-24T04:08:38.624Z,61.50
2022-08-24T04:11:41.517Z,61.70
2022-08-24T04:14:44.241Z,61.20
2022-08-24T04:17:50.297Z,61.00
2022-08-24T04:20:52.178Z,61.80
2022-08-24T04:23:55.181Z,61.60
2022-08-24T04:26:58.308Z,62.00
2022-08-24T04:30:00.883Z,61.80
2022-08-24T04:33:11.796Z,61.90
2022-08-24T04:36:14.785Z,62.40
2022-08-24T04:39:18.904Z,62.50
2022-08-24T04:42:23.661Z,61.50
2022-08-24T04:45:31.115Z,62.50
2022-08-24T04:48:33.832Z,61.80
2022-08-24T04:51:36.948Z,61.70
2022-08-24T04:54:40.742Z,61.90
2022-08-24T04:57:46.127Z,62.70
2022-08-24T05:00:48.498Z,62.20
2022-08-24T05:03:52.341Z,62.00
2022-08-24T05:06:54.952Z,62.00
2022-08-24T05:09:57.700Z,61.80
2022-08-24T05:13:01.291Z,62.20
2022-08-24T05:16:07.397Z,62.20
2022-08-24T05:19:09.898Z,62.60
2022-08-24T05:22:11.844Z,62.10
2022-08-24T05:25:19.388Z,61.20
2022-08-24T05:28:21.235Z,61.50
2022-08-24T05:31:25.843Z,61.90
2022-08-24T05:34:28.053Z,61.20
2022-08-24T05:37:34.058Z,61.40
2022-08-24T05:40:47.792Z,60.90
2022-08-24T05:43:51.727Z,60.50
2022-08-24T05:46:54.018Z,60.90
2022-08-24T05:49:56.022Z,61.90
2022-08-24T05:52:58.341Z,62.00
2022-08-24T05:56:09.409Z,62.80
2022-08-24T05:59:13.037Z,62.80
2022-08-24T06:02:15.179Z,62.60
2022-08-24T06:05:17.227Z,60.00
2022-08-24T06:08:20.487Z,60.70
2022-08-24T06:11:37.717Z,59.00
2022-08-24T06:14:41.467Z,59.50
2022-08-24T06:17:44.246Z,59.40
2022-08-24T06:20:46.418Z,58.20
2022-08-24T06:23:51.083Z,57.60
2022-08-24T06:26:53.093Z,55.50
2022-08-24T06:30:05.141Z,54.70
2022-08-24T06:33:29.537Z,53.50
2022-08-24T06:36:33.415Z,51.40
2022-08-24T06:39:35.251Z,50.90
2022-08-24T06:42:37.741Z,52.20
2022-08-24T06:45:53.103Z,53.70
2022-08-24T06:48:58.218Z,52.10
2022-08-24T06:52:00.128Z,50.80
2022-08-24T06:55:02.761Z,47.90
2022-08-24T06:58:04.846Z,45.20
2022-08-24T07:01:16.531Z,44.50
2022-08-24T07:04:18.413Z,44.50
2022-08-24T07:07:43.394Z,43.70
2022-08-24T07:10:45.555Z,43.90
2022-08-24T07:13:49.289Z,42.00
2022-08-24T07:16:51.363Z,41.50
2022-08-24T07:19:53.363Z,40.90
2022-08-24T07:23:15.251Z,42.60
2022-08-24T07:26:22.324Z,40.20
2022-08-24T07:32:49.039Z,38.20
2022-08-24T07:35:56.183Z,38.00
2022-08-24T07:38:58.736Z,37.50
2022-08-24T07:42:21.028Z,37.80
2022-08-24T07:45:22.960Z,37.50
2022-08-24T07:48:27.148Z,36.50
2022-08-24T07:54:52.560Z,38.20
2022-08-24T07:57:55.017Z,36.20
2022-08-24T08:00:57.469Z,38.00
2022-08-24T08:04:00.270Z,35.60
2022-08-24T08:07:02.221Z,36.00
2022-08-24T08:10:08.268Z,36.50
2022-08-24T08:13:13.504Z,36.90
2022-08-24T08:16:15.643Z,36.20
2022-08-24T08:19:17.791Z,36.40
2022-08-24T08:22:20.585Z,35.40
2022-08-24T08:26:00.933Z,35.20
2022-08-24T08:29:20.082Z,33.70
2022-08-24T08:32:22.373Z,33.90
2022-08-24T08:35:25.363Z,34.40
2022-08-24T08:38:28.115Z,35.00
2022-08-24T08:41:49.114Z,32.60
2022-08-24T08:45:21.527Z,31.80
2022-08-24T08:48:58.218Z,32.50
2022-08-24T08:52:06.288Z,31.20
2022-08-24T08:55:33.027Z,31.20
2022-08-24T08:58:57.701Z,30.50
2022-08-24T09:02:47.112Z,29.50
2022-08-24T09:06:25.796Z,29.60
2022-08-24T09:09:37.189Z,28.50
2022-08-24T09:13:02.750Z,29.00
2022-08-24T09:16:11.044Z,28.40
2022-08-24T09:19:35.050Z,28.00
2022-08-24T09:22:41.065Z,28.50
2022-08-24T09:26:10.149Z,29.10
2022-08-24T09:29:18.210Z,28.30
2022-08-24T09:33:01.190Z,28.40
2022-08-24T09:36:03.041Z,29.00
2022-08-24T09:39:33.326Z,28.60
2022-08-24T09:42:50.274Z,28.30
2022-08-24T09:46:05.585Z,28.30
2022-08-24T09:49:39.809Z,27.10
2022-08-24T09:53:03.478Z,27.70
2022-08-24T09:56:19.790Z,26.70
2022-08-24T09:59:30.548Z,27.00
2022-08-24T10:02:54.061Z,26.90
2022-08-24T10:06:16.941Z,26.50
2022-08-24T10:09:37.165Z,26.10
2022-08-24T10:13:01.712Z,25.80
2022-08-24T10:16:12.546Z,26.30
2022-08-24T10:19:47.879Z,26.50
2022-08-24T10:23:11.537Z,27.50
2022-08-24T10:26:16.133Z,26.90
2022-08-24T10:29:46.390Z,26.20
2022-08-24T10:33:18.027Z,26.60
2022-08-24T10:36:43.891Z,27.00
2022-08-24T10:40:16.431Z,25.70
2022-08-24T10:43:52.670Z,25.60
2022-08-24T10:47:21.109Z,26.40
2022-08-24T11:03:28.058Z,26.30
2022-08-24T11:06:37.297Z,26.60
2022-08-24T11:10:01.616Z,27.80
2022-08-24T11:13:30.282Z,26.50
2022-08-24T11:16:40.744Z,26.70
2022-08-24T11:19:42.995Z,26.80
2022-08-24T11:23:05.946Z,27.00
2022-08-24T11:26:18.648Z,29.20
2022-08-24T11:29:20.905Z,30.10
2022-08-24T11:32:40.334Z,28.00
2022-08-24T11:35:42.335Z,29.70
2022-08-24T11:38:45.874Z,29.60
2022-08-24T11:41:57.263Z,28.10
2022-08-24T11:45:08.524Z,29.50
2022-08-24T11:48:58.159Z,28.60
2022-08-24T11:52:17.204Z,29.10
2022-08-24T11:55:51.696Z,30.30
2022-08-24T11:59:24.914Z,28.90
2022-08-24T12:02:35.267Z,29.20
2022-08-24T12:05:37.314Z,30.70
2022-08-24T12:08:50.535Z,29.20
2022-08-24T12:12:00.154Z,30.30
2022-08-24T12:15:11.796Z,30.30
2022-08-24T12:18:44.294Z,28.30
2022-08-24T12:21:50.664Z,29.10
2022-08-24T12:24:57.057Z,29.40
2022-08-24T12:27:59.341Z,29.20
2022-08-24T12:31:32.331Z,30.20
2022-08-24T12:34:50.294Z,29.40
2022-08-24T12:38:25.936Z,29.30
2022-08-24T12:41:36.207Z,29.90
2022-08-24T12:44:49.020Z,29.50
2022-08-24T12:47:56.297Z,29.70
2022-08-24T12:51:06.074Z,28.30
2022-08-24T12:54:25.496Z,29.50
2022-08-24T12:58:32.231Z,28.80
2022-08-24T13:01:35.580Z,28.40
2022-08-24T13:04:55.343Z,29.20
2022-08-24T13:08:11.904Z,27.00
2022-08-24T13:11:29.760Z,27.60
2022-08-24T13:14:32.351Z,26.90
2022-08-24T13:17:41.891Z,26.20
2022-08-24T13:20:44.814Z,27.50
2022-08-24T13:23:46.759Z,26.30
2022-08-24T13:26:49.766Z,28.10
2022-08-24T13:30:20.559Z,26.80
2022-08-24T13:33:31.652Z,26.40
2022-08-24T13:36:40.576Z,26.10
2022-08-24T13:39:59.040Z,26.70
2022-08-24T13:43:12.570Z,26.30
2022-08-24T13:46:24.223Z,27.00
2022-08-24T13:49:29.262Z,25.50
2022-08-24T13:52:41.562Z,27.60
2022-08-24T13:55:50.478Z,25.30
2022-08-24T13:59:36.900Z,25.70
2022-08-24T14:02:56.678Z,26.80
2022-08-24T14:06:28.746Z,26.20
2022-08-24T14:09:36.135Z,26.70
2022-08-24T14:13:02.928Z,25.90
2022-08-24T14:16:30.208Z,26.00
2022-08-24T14:20:10.422Z,26.80
2022-08-24T14:24:02.034Z,27.10
2022-08-24T14:27:11.048Z,26.70
2022-08-24T14:30:18.696Z,27.30
2022-08-24T14:33:28.436Z,26.50
2022-08-24T14:36:48.858Z,27.60
2022-08-24T14:40:20.031Z,26.80
2022-08-24T14:43:30.252Z,27.00
2022-08-24T14:46:40.624Z,26.60
2022-08-24T14:49:46.571Z,27.00
2022-08-24T14:53:03.598Z,28.90
2022-08-24T14:56:47.942Z,25.70
2022-08-24T15:00:04.168Z,27.00
2022-08-24T15:03:34.450Z,27.10
2022-08-24T15:06:39.466Z,26.60
2022-08-24T15:09:46.487Z,26.90
2022-08-24T15:12:53.790Z,26.50
2022-08-24T15:16:05.173Z,26.70
2022-08-24T15:19:36.123Z,26.10
2022-08-24T15:22:58.065Z,28.30
2022-08-24T15:26:10.007Z,27.10
2022-08-24T15:29:18.908Z,26.60
2022-08-24T15:32:22.362Z,26.50
2022-08-24T15:35:34.342Z,27.20
2022-08-24T15:38:39.007Z,27.30
2022-08-24T15:41:42.009Z,27.40
2022-08-24T15:44:47.495Z,27.40
2022-08-24T15:47:51.997Z,27.60
2022-08-24T15:50:56.216Z,27.40
2022-08-24T15:53:58.392Z,27.80
2022-08-24T15:57:18.658Z,28.80
2022-08-24T16:00:40.417Z,28.90
2022-08-24T16:03:54.787Z,28.00
2022-08-24T16:06:56.748Z,27.70
2022-08-24T16:10:07.932Z,28.10
2022-08-24T16:13:18.234Z,30.30
2022-08-24T16:16:33.392Z,28.50
2022-08-24T16:19:36.124Z,33.10
2022-08-24T16:22:54.421Z,38.20
2022-08-24T16:26:27.051Z,33.90
2022-08-24T16:29:34.886Z,36.40
2022-08-24T16:32:56.419Z,33.20
2022-08-24T16:35:59.871Z,30.60
2022-08-24T16:39:01.863Z,31.00
2022-08-24T16:42:07.271Z,35.60
2022-08-24T16:45:11.043Z,29.80
2022-08-24T16:48:12.990Z,29.60
2022-08-24T16:51:14.962Z,32.70
2022-08-24T16:54:16.816Z,37.80
2022-08-24T16:57:25.200Z,33.50
2022-08-24T17:00:27.715Z,31.50
2022-08-24T17:03:29.910Z,34.20
2022-08-24T17:06:31.985Z,35.60
2022-08-24T17:09:39.378Z,34.00
2022-08-24T17:12:41.183Z,30.90
2022-08-24T17:15:43.133Z,30.90
2022-08-24T17:18:45.579Z,38.00
2022-08-24T17:21:48.602Z,36.70
2022-08-24T17:24:51.465Z,36.20
2022-08-24T17:27:54.639Z,30.00
2022-08-24T17:30:56.578Z,35.50
2022-08-24T17:33:58.575Z,37.10
2022-08-24T17:37:00.780Z,43.00
2022-08-24T17:40:03.744Z,48.40
2022-08-24T17:43:06.175Z,40.10
2022-08-24T17:46:12.720Z,35.40
2022-08-24T17:49:14.963Z,35.00
2022-08-24T17:52:18.820Z,36.70
2022-08-24T17:55:24.045Z,34.30
2022-08-24T17:58:27.324Z,33.60
2022-08-24T18:01:29.917Z,33.70
2022-08-24T18:04:34.216Z,34.10
2022-08-24T18:07:52.584Z,36.70
2022-08-24T18:10:55.313Z,33.00
2022-08-24T18:13:57.328Z,39.10
2022-08-24T18:17:02.465Z,35.50
2022-08-24T18:20:07.382Z,42.70
2022-08-24T18:23:11.464Z,36.90
2022-08-24T18:26:18.876Z,44.10
2022-08-24T18:29:21.654Z,44.20
2022-08-24T18:32:23.920Z,37.70
2022-08-24T18:35:30.570Z,45.10
2022-08-24T18:38:32.492Z,40.40
2022-08-24T18:41:37.630Z,45.10
2022-08-24T18:44:40.093Z,45.20
2022-08-24T18:47:42.163Z,45.40
2022-08-24T18:50:44.183Z,44.40
2022-08-24T18:53:46.735Z,37.80
2022-08-24T18:56:49.074Z,44.00
2022-08-24T18:59:50.997Z,38.20
2022-08-24T19:02:52.962Z,44.80
2022-08-24T19:05:55.054Z,36.50
2022-08-24T19:08:57.059Z,35.20
2022-08-24T19:11:59.058Z,39.60
2022-08-24T19:15:02.057Z,38.50
2022-08-24T19:18:05.575Z,42.90
2022-08-24T19:21:07.763Z,36.40
2022-08-24T19:24:09.856Z,38.10
2022-08-24T19:27:11.955Z,43.00
2022-08-24T19:30:14.575Z,38.70
2022-08-24T19:33:27.845Z,42.10
2022-08-24T19:36:29.980Z,38.00
2022-08-24T19:39:32.042Z,43.50
2022-08-24T19:42:35.195Z,37.00
2022-08-24T19:45:38.050Z,36.80
2022-08-24T19:48:40.181Z,36.90
2022-08-24T19:51:43.724Z,39.80
2022-08-24T19:54:47.396Z,37.60
2022-08-24T19:57:54.902Z,37.30
2022-08-24T20:01:06.108Z,38.10
2022-08-24T20:04:09.085Z,37.00
2022-08-24T20:07:16.255Z,37.00
2022-08-24T20:10:21.409Z,39.40
2022-08-24T20:13:23.320Z,41.80
2022-08-24T20:16:28.667Z,39.60
2022-08-24T20:19:36.310Z,40.20
2022-08-24T20:22:38.550Z,44.30
2022-08-24T20:25:40.637Z,40.40
2022-08-24T20:28:52.949Z,41.90
2022-08-24T20:31:54.986Z,40.70
2022-08-24T20:34:57.221Z,41.10
2022-08-24T20:37:59.095Z,42.20
2022-08-24T20:41:01.891Z,42.10
2022-08-24T20:44:06.263Z,44.10
2022-08-24T20:47:09.299Z,42.50
2022-08-24T20:50:11.317Z,42.80
2022-08-24T20:53:13.357Z,45.30
2022-08-24T20:56:27.901Z,45.90
2022-08-24T20:59:33.324Z,43.90
2022-08-24T21:02:35.160Z,44.70
2022-08-24T21:05:38.252Z,45.60
2022-08-24T21:08:43.157Z,46.50
2022-08-24T21:11:46.342Z,45.70
2022-08-24T21:14:48.272Z,48.80
2022-08-24T21:17:53.389Z,47.80
2022-08-24T21:21:04.519Z,48.00
2022-08-24T21:24:08.072Z,47.70
2022-08-24T21:27:11.566Z,49.70
2022-08-24T21:30:20.760Z,48.70
2022-08-24T21:33:24.567Z,49.10
2022-08-24T21:36:27.301Z,49.50
2022-08-24T21:39:29.209Z,51.60
2022-08-24T21:42:31.170Z,51.00
2022-08-24T21:45:34.731Z,48.50
2022-08-24T21:48:36.758Z,49.10
2022-08-24T21:51:38.677Z,51.90
2022-08-24T21:54:40.781Z,49.90
2022-08-24T21:57:44.337Z,49.70
2022-08-24T22:00:47.055Z,50.90
2022-08-24T22:03:48.935Z,50.50
2022-08-24T22:06:50.955Z,50.50
2022-08-24T22:09:52.880Z,50.50
2022-08-24T22:12:55.084Z,52.90
2022-08-24T22:15:59.089Z,51.30
2022-08-24T22:19:01.258Z,52.10
2022-08-24T22:22:04.071Z,51.80
2022-08-24T22:25:07.206Z,52.60
2022-08-24T22:28:09.190Z,53.30
2022-08-24T22:31:16.784Z,52.30
2022-08-24T22:34:20.677Z,53.60
2022-08-24T22:37:22.875Z,52.10
2022-08-24T22:40:25.028Z,53.10
2022-08-24T22:43:28.354Z,52.90
2022-08-24T22:46:30.466Z,53.80
2022-08-24T22:49:37.171Z,54.00
2022-08-24T22:52:39.086Z,55.80
2022-08-24T22:55:40.982Z,57.00
2022-08-24T22:58:42.822Z,56.50
2022-08-24T23:01:46.951Z,55.80
2022-08-24T23:04:51.014Z,56.10
2022-08-24T23:07:52.902Z,57.40
2022-08-24T23:10:57.328Z,56.80
2022-08-24T23:14:02.091Z,55.60
2022-08-24T23:17:04.877Z,56.40
2022-08-24T23:20:07.253Z,56.80
2022-08-24T23:23:09.235Z,56.80
2022-08-24T23:26:14.528Z,58.30
2022-08-24T23:29:20.533Z,59.30
2022-08-24T23:32:23.070Z,58.90
2022-08-24T23:35:25.122Z,59.30
2022-08-24T23:38:27.089Z,58.30
2022-08-24T23:41:33.269Z,57.70
2022-08-24T23:44:37.973Z,58.00
2022-08-24T23:47:40.528Z,57.40
2022-08-24T23:50:45.984Z,57.60
2022-08-24T23:53:49.728Z,57.90
2022-08-24T23:56:52.630Z,58.60
2022-08-24T23:59:54.501Z,58.80
